createdAt,value
2022-08-16T00:10:20.655Z,13.60
2022-08-16T00:20:25.322Z,14.10
2022-08-16T00:30:45.851Z,13.70
2022-08-16T00:41:05.981Z,13.20
2022-08-16T00:51:41.012Z,14.60
2022-08-16T01:02:30.365Z,14.80
2022-08-16T01:13:06.374Z,15.80
2022-08-16T01:24:51.631Z,14.40
2022-08-16T01:34:56.948Z,14.40
2022-08-16T01:45:40.419Z,13.40
2022-08-16T01:56:24.264Z,15.00
2022-08-16T02:07:17.253Z,14.80
2022-08-16T02:17:57.748Z,13.50
2022-08-16T02:28:23.691Z,13.40
2022-08-16T02:38:55.582Z,14.10
2022-08-16T02:49:07.142Z,13.90
2022-08-16T03:09:32.654Z,14.10
2022-08-16T03:21:23.957Z,13.30
2022-08-16T03:31:53.558Z,13.10
2022-08-16T03:54:17.930Z,13.10
2022-08-16T04:04:54.580Z,12.40
2022-08-16T04:15:24.819Z,12.80
2022-08-16T04:26:22.591Z,12.30
2022-08-16T04:37:07.526Z,13.40
2022-08-16T04:47:36.403Z,12.70
2022-08-16T04:58:43.768Z,13.20
2022-08-16T05:08:47.189Z,13.70
2022-08-16T05:19:16.374Z,14.40
2022-08-16T05:29:57.837Z,12.90
2022-08-16T05:40:20.125Z,13.10
2022-08-16T05:51:07.929Z,12.90
2022-08-16T06:01:23.100Z,12.50
2022-08-16T06:11:50.434Z,12.00
2022-08-16T06:23:02.835Z,12.00
2022-08-16T06:33:41.726Z,12.00
2022-08-16T06:44:08.016Z,11.90
2022-08-16T06:54:35.980Z,10.90
2022-08-16T07:04:54.382Z,12.90
2022-08-16T07:15:50.550Z,12.00
2022-08-16T07:25:29.220Z,12.10
2022-08-16T07:35:51.465Z,12.10
2022-08-16T07:46:39.647Z,12.20
2022-08-16T07:56:54.863Z,11.60
2022-08-16T08:07:09.610Z,12.20
2022-08-16T08:17:43.010Z,11.70
2022-08-16T08:39:55.317Z,11.70
2022-08-16T09:25:11.180Z,7.90
2022-08-16T09:48:11.150Z,8.80
2022-08-16T09:59:20.976Z,9.60
2022-08-16T10:10:30.760Z,9.80
2022-08-16T10:21:09.431Z,9.60
2022-08-16T10:32:31.950Z,9.90
2022-08-16T10:54:32.111Z,8.60
2022-08-16T11:29:15.268Z,9.80
2022-08-16T11:39:38.279Z,9.70
2022-08-16T11:50:52.959Z,8.80
2022-08-16T12:25:21.651Z,9.70
2022-08-16T12:47:37.301Z,9.30
2022-08-16T13:22:05.397Z,9.80
2022-08-16T13:44:00.606Z,11.20
2022-08-16T13:55:18.113Z,11.70
2022-08-16T14:06:11.432Z,9.50
2022-08-16T14:28:10.451Z,5.50
2022-08-16T14:39:52.630Z,5.60
2022-08-16T14:50:53.695Z,6.40
2022-08-16T16:12:51.261Z,7.40
2022-08-16T16:23:27.221Z,7.30
2022-08-16T16:35:16.234Z,7.40
2022-08-16T16:57:16.919Z,9.00
2022-08-16T17:08:04.777Z,9.40
2022-08-16T17:40:25.477Z,10.10
2022-08-16T17:51:39.590Z,10.30
2022-08-16T18:14:51.324Z,10.70
2022-08-16T18:57:45.500Z,11.40
2022-08-16T19:31:23.862Z,11.50
2022-08-16T19:53:42.604Z,11.80
2022-08-16T20:03:46.391Z,11.10
2022-08-16T20:14:25.517Z,11.00
2022-08-16T20:24:34.554Z,11.90
2022-08-16T20:35:03.523Z,20.40
2022-08-16T20:45:08.371Z,11.40
2022-08-16T20:55:22.414Z,11.40
2022-08-16T21:05:31.918Z,10.90
2022-08-16T21:16:30.210Z,11.70
2022-08-16T21:27:19.220Z,10.90
2022-08-16T21:37:36.323Z,11.60
2022-08-16T21:48:11.015Z,11.30
2022-08-16T21:58:25.197Z,11.40
2022-08-16T22:08:50.982Z,12.20
2022-08-16T22:19:11.805Z,11.30
2022-08-16T22:29:48.105Z,12.10
2022-08-16T22:40:40.579Z,12.00
2022-08-16T22:50:56.977Z,11.60
2022-08-16T23:01:22.140Z,12.20
2022-08-16T23:12:08.106Z,12.60
2022-08-16T23:23:17.628Z,11.30
2022-08-16T23:33:19.393Z,12.20
2022-08-16T23:43:34.684Z,12.50
2022-08-16T23:54:03.771Z,11.90
